Rapid City, SD (57701)

11:45 PM MDT on August 28, 2014 (GMT -0600)
KSDKYLE1 | Change Station
CLOSE
Current Station
Personal Weather Station
Location: Rapid City, SD
Elevation: 3251 ft
Nearby Weather Stations

Elev 3251 ft 44.06 °N, 103.20 °W | Updated 17 minutes ago

Clear
Clear
62.3 °F
Feels Like 62.3 °F
N
0.0
Wind Variable Wind from SSE
Gusts 0.0 mph

Today
High -- | Low -- °F
--% Chance of Precip.
Yesterday
High -- | Low -- °F
Precip. -- in
6:11 AM 7:35 PM
Waxing Crescent, 12% visible
Pressure 29.88 in
Visibility 10.0 miles
Clouds Clear
Dew Point 57 °F
Humidity 84%
Rainfall 0.00 in
Snow Depth Not available.
UV 0 out of 12
Pollen 8.00 out of 12
Air Quality Not available.
Flu Activity Not available.
METAR KRAP 290452Z AUTO 00000KT 10SM CLR 16/14 A2993 RMK AO2 SLP118 T01560139

More Conditions Fewer Conditions

Pressure 29.88 in
Visibility 10.0 miles
Clouds Clear
Dew Point 57 °F
Humidity 84%
Rainfall 0.00 in
Snow Depth Not available.
UV 0 out of 12
Pollen 8.00 out of 12
Air Quality Not available.
Flu Activity Not available.
METAR KRAP 290452Z AUTO 00000KT 10SM CLR 16/14 A2993 RMK AO2 SLP118 T01560139

More Conditions Fewer Conditions

10-Day Weather Forecast

Almanac

Astronomy

Aug. 28, 2014 Rise Set
Actual Time 6:11 AM MDT 7:35 PM MDT
Civil Twilight 5:41 AM MDT 8:05 PM MDT
Nautical Twilight 5:04 AM MDT 8:41 PM MDT
Astronomical Twilight 4:26 AM MDT 9:20 PM MDT
Moon 9:13 AM MDT (8/28) 8:52 PM MDT (8/28)
Length of Visible Light 14h 24m
Length of Day
13h 24m
Tomorrow will be 2m 54s shorter.
Waxing Crescent, 12% of the Moon is Illuminated
Aug 29
Waxing Crescent
Sep 2
First Quarter
Sep 8
Full
Sep 15
Last Quarter
Sep 24
New

Yesterday's Extremes

State Highs State Lows

Community

WunderPhotos

Upload Photos

1,748,197 photos uploaded!

Nearby

Snow Depth

Station Depth Elevation
Blind Park 0 in 6890 ft

Earthquake Activity

City Distance Mag. Time & Date
No recent earthquake activity has been reported nearby.
Minimum magnitude displayed is 2.5.

Coastal Water Temperatures

Place Temperature
No Stations Reporting

Nearby Weather Stations